メインページ
METAR-TAF:

METAR-TAF

空港 :

オデッサ, ウクライナ

オデッサ国際空港

緯度: 46-26N, 経度: 030-46E, 海抜: 42m

現時点の気象観測

当レポートは10分前の14:30(UTC)に作成
の風 14kt
気温 28°C
湿度 58%
気圧 1005 hPa
視程10km以上
1,500メートル以下は雲なし、積乱雲なし

METAR: UKOO 261430Z 18007MPS CAVOK 28/19 Q1005 R16/090060 NOSIG

時間: 17:40 (14:40 UTC)

予報

当レポートは3時間37分前の11:03(UTC)に作成
予報は26日の 12時(UTC)から 27日の 12時(UTC)まで有効
南/南東の風 6kt
視程: 6000m
高度1300ftの千切れ雲あり
高度2000ftの雲は散在している, 積乱雲.
確率 40% :
26日の 12時(UTC)から 26日の 17時(UTC)まで一時的に
変向風 29kt
激しい雷雨, 小雨
26日の 17時(UTC)から 26日の 19時(UTC)まで徐々に
視程: 2100m
高度700ftの千切れ雲あり
高度2000ftの雲は散在している, 積乱雲.
26日の 19時(UTC)から 27日の 06時(UTC)まで一時的に
視程: 0300m
高度200ftの
弱いにわか雨, 霧

TAF: UKOO 261103Z 2612/2712 15003MPS 6000 BKN013 SCT020CB PROB40 TEMPO 2612/2617 VRB15MPS -TSRA BECMG 2617/2619 2100 BR BKN007 SCT020CB TEMPO 2619/2706 0300 -SHRA FG VV002 TX28/2612Z TN19/2702Z

4,000以上の空港の気象観測と天気予報(METAR報とTAF報)

利用可能な観測所は地図上に黄色い丸と赤い丸で示す。

丸の上にカーソルを重ねると観測所名を参照できる。

次にクリックすると気象観測と天気予報を参照できる。

マップの切り替え:黒色「×」印の緑ボタンをクリックして拡大、「-」印の緑ボタンをクリックして縮小、緑色の三角印をクリックして隣りの地図に切り替え


METAR-TAF: